Parrottsville, TN (37843)

3:05 PM EDT on September 01, 2015 (GMT -0400)
Parrottsville TN | | Change Station
CLOSE
Current Station
Personal Weather Station
Location: Parrottsville, TN
Elevation: 1352 ft
Nearby Weather Stations

Elev 1352 ft 35.97 °N, 83.11 °W | Updated 28 seconds ago

Partly Cloudy
Partly Cloudy
87.4 °F
Feels Like 90 °F
N
5.6
Wind Variable Wind from WSW
Gusts 7.4 mph

Today
High -- | Low -- °F
--% Chance of Precip.
Yesterday
High -- | Low -- °F
Precip. -- in
7:03 AM 8:00 PM
Waning Gibbous, 87% visible
Pressure 30.17 in
Visibility 10.0 miles
Clouds Scattered Clouds 4900 ft
Scattered Clouds 5500 ft
Mostly Cloudy 7000 ft
Heat Index 90 °F
Dew Point 67 °F
Humidity 50%
Rainfall 0.00 in
Snow Depth Not available.
UV 6.0 out of 12
Pollen 8.80 out of 12
Air Quality Not available.
Flu Activity Not available.
METAR K0VG 011855Z AUTO 31003KT 10SM SCT049 SCT055 BKN070 29/20 A3017 RMK AO2
Pressure 30.17 in
Visibility 10.0 miles
Clouds Scattered Clouds 4900 ft
Scattered Clouds 5500 ft
Mostly Cloudy 7000 ft
Heat Index 90 °F
Dew Point 67 °F
Humidity 50%
Rainfall 0.00 in
Snow Depth Not available.
UV 6.0 out of 12
Pollen 8.80 out of 12
Air Quality Not available.
Flu Activity Not available.
METAR K0VG 011855Z AUTO 31003KT 10SM SCT049 SCT055 BKN070 29/20 A3017 RMK AO2

10-Day Weather Forecast

×

Almanac

Astronomy

Sep. 01, 2015 Rise Set
Actual Time
Civil Twilight
Nautical Twilight
Astronomical Twilight
Moon
Length of Visible Light
Length of Day
Tomorrow will be .
, % of the Moon is Illuminated

Today's Extremes

State Highs State Lows

Community

WunderPhotos

Upload Photos

1,851,596 photos uploaded!

WunderBlogs® & News

Nearby

Air Quality

  Air Quality AQ Index Pollutant
Not available.

Snow Depth

Station Depth Elevation

Earthquake Activity

City Distance Mag. Time & Date
Minimum magnitude displayed is 2.5.

Coastal Water Temperatures

Place Temperature

Stations

Nearby Weather Stations

Station Location Temp. Windchill Dew Point Humidity Wind Precip. Elev Updated Type